Time;durP1;ratioP1;P1;durP2;ratioP2;P2;SDS_P1;SDS_P2;PMS_P1;PMS_P2;Temp;Humidity;BMP_temperature;BMP_pressure;BME280_temperature;BME280_humidity;BME280_pressure;Samples;Min_cycle;Max_cycle;Signal;HPM_P1;HPM_P2
2021/11/07 00:12:29;;;;;;;0.10;0.10;;;10.50;92.10;9.40;101674.00;;;;31381940;28;20044;-69
2021/11/07 00:27:30;;;;;;;0.17;0.17;;;10.30;92.70;9.30;101687.00;;;;31360355;28;20076;-69
2021/11/07 00:58:13;;;;;;;0.20;0.20;;;10.20;93.20;9.30;101636.00;;;;31381533;28;20227;-68
2021/11/07 01:13:15;;;;;;;0.20;0.20;;;10.20;93.50;9.20;101648.00;;;;31378133;28;20048;-68
2021/11/07 01:28:24;;;;;;;0.20;0.20;;;10.30;93.80;9.30;101599.00;;;;31375622;28;20930;-68
2021/11/07 01:43:28;;;;;;;0.20;0.20;;;10.30;94.40;9.40;101594.00;;;;31379348;28;20627;-68
2021/11/07 01:58:31;;;;;;;0.10;0.10;;;10.40;94.10;9.40;101550.00;;;;31353606;28;20155;-68
2021/11/07 02:13:34;;;;;;;0.55;0.55;;;10.70;94.30;9.50;101542.00;;;;31372679;28;20560;-68
2021/11/07 02:28:42;;;;;;;0.20;0.20;;;10.50;94.30;9.60;101507.00;;;;31375872;28;20051;-68
2021/11/07 02:43:52;;;;;;;0.30;0.30;;;10.60;94.20;9.70;101492.00;;;;31374028;28;20041;-68
2021/11/07 02:58:54;;;;;;;0.20;0.20;;;10.60;94.30;9.80;101489.00;;;;31355606;28;20060;-67
2021/11/07 03:14:04;;;;;;;0.13;0.13;;;10.80;94.40;9.80;101467.00;;;;31360684;28;20126;-68
2021/11/07 03:29:10;;;;;;;0.10;0.10;;;10.80;94.60;9.90;101470.00;;;;31373470;28;20052;-68
2021/11/07 03:44:13;;;;;;;0.20;0.20;;;10.80;95.00;9.90;101458.00;;;;31354258;28;20049;-68
2021/11/07 03:59:16;;;;;;;0.13;0.13;;;11.00;94.70;9.90;101435.00;;;;31387920;28;20069;-68
2021/11/07 04:14:23;;;;;;;0.43;0.43;;;10.90;94.70;10.00;101429.00;;;;31370118;28;20411;-68
2021/11/07 04:29:26;;;;;;;0.20;0.20;;;10.90;94.80;10.00;101416.00;;;;31391290;28;20143;-68
2021/11/07 04:44:30;;;;;;;0.10;0.10;;;11.00;94.90;10.10;101396.00;;;;31384100;28;20044;-69
2021/11/07 04:59:56;;;;;;;0.15;0.15;;;11.00;94.90;10.10;101427.00;;;;31381833;28;20070;-68
2021/11/07 05:14:59;;;;;;;0.43;0.43;;;11.10;94.80;10.20;101400.00;;;;31362091;28;20098;-68
2021/11/07 05:30:09;;;;;;;0.10;0.10;;;11.10;94.80;10.20;101418.00;;;;31366197;28;20040;-68
2021/11/07 05:45:11;;;;;;;0.40;0.40;;;11.20;94.80;10.20;101420.00;;;;31370491;28;20558;-68
2021/11/07 06:00:16;;;;;;;0.20;0.20;;;11.20;94.80;10.30;101417.00;;;;31379687;28;20056;-69
2021/11/07 06:15:18;;;;;;;0.15;0.15;;;11.20;94.40;10.30;101418.00;;;;31373157;28;20044;-69
2021/11/07 06:30:22;;;;;;;0.10;0.10;;;11.20;94.50;10.20;101440.00;;;;31339927;28;20040;-69
2021/11/07 06:45:26;;;;;;;1.98;1.85;;;11.30;94.60;10.20;101456.00;;;;31379757;28;20791;-69
2021/11/07 07:00:28;;;;;;;0.10;0.10;;;11.20;95.20;10.20;101459.00;;;;31378567;28;20045;-68
2021/11/07 07:15:38;;;;;;;0.20;0.20;;;11.10;94.30;10.20;101481.00;;;;31364761;28;20090;-67
2021/11/07 07:31:21;;;;;;;0.10;0.10;;;11.10;92.70;10.20;101472.00;;;;31381182;28;20716;-68
2021/11/07 07:46:13;;;;;;;0.10;0.10;;;11.20;92.80;10.20;101483.00;;;;31397472;28;20106;-68
2021/11/07 08:01:14;;;;;;;0.17;0.17;;;11.10;91.90;10.20;101482.00;;;;31375603;28;20277;-68
2021/11/07 08:16:18;;;;;;;0.20;0.20;;;11.10;91.50;10.10;101502.00;;;;31370221;28;20693;-68
2021/11/07 08:31:25;;;;;;;0.10;0.10;;;11.20;90.10;10.40;101504.00;;;;31372205;28;20036;-68
2021/11/07 09:02:08;;;;;;;0.85;0.85;;;11.40;89.40;10.50;101498.00;;;;31380516;28;20044;-67
2021/11/07 09:17:13;;;;;;;0.10;0.10;;;11.40;89.20;10.40;101506.00;;;;31378455;28;20082;-67
2021/11/07 09:47:27;;;;;;;0.22;0.22;;;11.80;86.70;10.90;101510.00;;;;31368922;28;21228;-67
2021/11/07 10:02:32;;;;;;;0.10;0.10;;;11.70;88.00;11.30;101522.00;;;;31348796;28;20467;-67
2021/11/07 10:17:55;;;;;;;;;;;12.20;85.60;11.30;101532.00;;;;31345754;28;20298;-67
2021/11/07 10:33:19;;;;;;;1.35;0.73;;;12.20;84.60;11.30;101527.00;;;;31374399;28;19928;-68
2021/11/07 11:03:59;;;;;;;0.10;0.10;;;12.80;80.80;12.00;101522.00;;;;31366209;28;20041;-68
2021/11/07 11:35:11;;;;;;;0.17;0.15;;;13.40;76.70;12.60;101497.00;;;;31367480;28;20513;-68
2021/11/07 11:50:24;;;;;;;0.20;0.20;;;13.60;75.90;12.80;101464.00;;;;31369271;28;20147;-68
2021/11/07 12:20:59;;;;;;;1.08;0.90;;;14.10;73.00;12.90;101472.00;;;;31367415;28;20048;-68
2021/11/07 12:36:30;;;;;;;;;;;13.80;69.30;13.00;101477.00;;;;31375114;28;21356;-68
2021/11/07 12:51:45;;;;;;;0.10;0.10;;;13.80;67.60;12.80;101467.00;;;;31372559;28;19950;-68
2021/11/07 13:06:56;;;;;;;0.15;0.15;;;13.70;69.80;12.20;101471.00;;;;31384098;28;20050;-68
2021/11/07 13:22:23;;;;;;;0.10;0.10;;;12.50;74.10;11.50;101514.00;;;;31372303;28;20037;-68
2021/11/07 13:37:27;;;;;;;0.20;0.20;;;11.10;83.80;9.90;101508.00;;;;31376667;28;20072;-68
2021/11/07 13:52:32;;;;;;;0.10;0.10;;;10.90;86.90;9.70;101491.00;;;;31370882;28;20078;-68
2021/11/07 14:07:40;;;;;;;0.20;0.20;;;11.00;83.90;10.10;101508.00;;;;31381982;28;20106;-68
2021/11/07 14:23:22;;;;;;;0.30;0.30;;;10.90;81.10;9.80;101500.00;;;;31359559;28;20087;-67
2021/11/07 14:38:31;;;;;;;0.20;0.20;;;10.80;82.80;9.80;101514.00;;;;31359889;28;20055;-67
2021/11/07 14:54:05;;;;;;;0.10;0.10;;;10.80;83.90;9.70;101522.00;;;;31355186;28;20490;-67
2021/11/07 15:09:25;;;;;;;0.20;0.20;;;10.70;84.30;9.70;101533.00;;;;31365777;28;20052;-67
2021/11/07 15:24:45;;;;;;;0.20;0.20;;;10.60;83.40;9.60;101523.00;;;;31350109;28;20074;-68
2021/11/07 15:39:49;;;;;;;0.10;0.10;;;10.50;83.80;9.50;101547.00;;;;31370695;28;20038;-67
2021/11/07 15:55:06;;;;;;;0.20;0.20;;;10.40;86.80;9.40;101549.00;;;;31373988;28;20663;-68
2021/11/07 16:10:14;;;;;;;0.20;0.20;;;10.40;86.20;9.10;101579.00;;;;31388025;28;20056;-68
2021/11/07 16:25:23;;;;;;;0.25;0.25;;;10.10;89.10;9.00;101578.00;;;;31391457;28;20054;-69
2021/11/07 16:41:28;;;;;;;0.30;0.30;;;10.10;87.10;9.10;101604.00;;;;31391454;28;20047;-69
2021/11/07 16:56:01;;;;;;;0.20;0.20;;;10.00;86.70;9.00;101614.00;;;;31363074;28;20072;-68
2021/11/07 17:11:07;;;;;;;0.20;0.20;;;9.90;85.00;8.80;101607.00;;;;31380253;28;20131;-70
2021/11/07 17:26:16;;;;;;;0.20;0.20;;;9.70;85.60;8.60;101640.00;;;;31380494;28;20441;-69
2021/11/07 17:56:29;;;;;;;0.20;0.20;;;9.60;86.60;8.40;101688.00;;;;31373381;28;20041;-68
2021/11/07 18:11:31;;;;;;;0.82;0.82;;;9.30;87.20;8.10;101670.00;;;;31369673;28;20038;-69
2021/11/07 18:26:33;;;;;;;0.20;0.20;;;9.10;88.00;7.90;101669.00;;;;31360116;28;20068;-69
2021/11/07 18:41:35;;;;;;;0.20;0.20;;;9.00;87.80;7.90;101676.00;;;;31370172;28;20094;-69
2021/11/07 18:56:47;;;;;;;0.20;0.20;;;9.00;88.80;7.80;101685.00;;;;31357088;28;20044;-68
2021/11/07 19:11:47;;;;;;;0.20;0.20;;;8.80;88.40;7.60;101702.00;;;;31359304;28;20142;-69
2021/11/07 19:26:49;;;;;;;0.20;0.20;;;8.60;88.90;7.50;101705.00;;;;31393213;28;20071;-69
2021/11/07 19:41:50;;;;;;;0.20;0.20;;;8.50;89.40;7.40;101731.00;;;;31266316;28;20067;-69
2021/11/07 19:56:58;;;;;;;0.20;0.20;;;8.40;90.00;7.30;101746.00;;;;31369635;28;20044;-68
2021/11/07 20:12:11;;;;;;;0.10;0.10;;;8.40;90.40;7.20;101743.00;;;;31330824;28;20178;-68
2021/11/07 20:27:22;;;;;;;0.30;0.30;;;8.20;90.40;7.00;101759.00;;;;31322571;28;20045;-69
2021/11/07 20:42:28;;;;;;;0.20;0.20;;;8.10;90.70;6.90;101780.00;;;;31258809;28;20109;-69
2021/11/07 20:57:39;;;;;;;0.30;0.30;;;7.40;90.80;6.70;101799.00;;;;31263106;28;20581;-69
2021/11/07 21:12:46;;;;;;;0.20;0.20;;;7.70;90.90;6.40;101811.00;;;;31294436;28;20065;-69
2021/11/07 21:27:46;;;;;;;0.30;0.30;;;7.50;91.40;6.20;101814.00;;;;31251156;28;20741;-69
2021/11/07 21:43:03;;;;;;;0.10;0.10;;;7.30;91.30;5.90;101812.00;;;;31292149;28;20416;-69
2021/11/07 21:58:04;;;;;;;0.20;0.20;;;7.10;91.00;5.70;101828.00;;;;31335213;28;20063;-69
2021/11/07 22:13:05;;;;;;;0.30;0.30;;;6.90;91.60;5.50;101837.00;;;;31341878;28;20036;-68
2021/11/07 22:28:06;;;;;;;0.20;0.20;;;6.80;91.80;5.50;101855.00;;;;31361373;28;20048;-68
2021/11/07 22:43:15;;;;;;;0.20;0.20;;;6.80;92.30;5.50;101858.00;;;;31353227;28;20053;-68
2021/11/07 23:14:19;;;;;;;0.20;0.20;;;7.00;93.60;5.90;101881.00;;;;31299659;28;20033;-68
2021/11/07 23:29:22;;;;;;;0.33;0.33;;;7.00;93.40;5.70;101891.00;;;;31270887;28;20037;-68
2021/11/07 23:44:26;;;;;;;0.20;0.20;;;6.90;93.40;5.70;101908.00;;;;31226223;28;20047;-68
2021/11/07 23:59:29;;;;;;;0.28;0.28;;;6.80;93.80;5.50;101901.00;;;;31243149;28;20059;-68
